Aérodrome :
LOGIN :

S'inscrire | Disclaimer

   EN    FR    IT 

 










Légende :    VFR   VFR Marginal   IFR   IFR Intensif   IFR Très Intensif
Visi : 
Plafond : 
>= 8 km
>= 3000ft
5 à 8 km
1000 à 3000 ft
1500m à 5 km
500 à 1000 ft
800 à 1500m
200 à 500 ft
< 800m
< 200 ft
Symboles :   Orages  Brouillard  Fortes neiges  Fortes précipitations  Vent > 20 kt
SIGMETs :   Divers  Orages  Givrage  Turbulence  Onde Orograph.  Cendres Volcan.







- Altitude de l'aérodrome : 364 ft
- Voir les cartes d'approche


LFAQ - Albert Bray

DERNIER METAR :
  • 231200Z AUTO 08013KT CAVOK 13/07 Q1011 TEMPO 4000 SHRA BKN030TCU

METARs EXPIRÉS :
  • 231130Z AUTO 08013KT 9999 FEW042 SCT048 OVC072 12/07 Q1011 TEMPO 4000 SHRA BKN030TCU
  • 231100Z AUTO 07012KT 9999 SCT045 BKN056 BKN066 11/06 Q1011 NOSIG
  • 231030Z AUTO 08013KT CAVOK 11/06 Q1011 NOSIG
  • 231000Z AUTO 08015KT 9999 FEW021 10/05 Q1011 NOSIG
  • 230930Z AUTO 07013KT CAVOK 10/05 Q1011 NOSIG

TAF TAF LFAQ
Valide du 23 à 12h jusqu'au 23 à 21h UTC


231100Z 2312/2321 08015KT CAVOK
PROB40
TEMPO 2313/2318 4000 SHRA BKN030TCU
Pas de NOTAMs connus pour ce terrain.



MET'MAP, la Météo Aéronautique d'un coup d'oeil ! - Copyright ORBIFLY Décembre 2007 - Disclaimer

ORBIFLY MET'MAP TEAM :

Programmation & Développement : Alexandra Zaïnal
Conception & Développement : Baudouin d'Aumeries
Co-Programmation & Développement : Marc-Olivier Méhu
Soutien technique & logistique : Manuel Goepfert

Contact : metmap@orbifly.com




SOURCES & CREDITS :

   NOAA